Time,TemperatureF,DewpointF,PressureIn,WindDirection,WindDirectionDegrees,WindSpeedMPH,WindSpeedGustMPH,Humidity,HourlyPrecipIn,Conditions,Clouds,dailyrainin,SoftwareType,DateUTC
2013-05-19 00:03:00,49.5,40.4,29.40,NE,45,0.0,0.0,71,0.00,RA,,0.00,WeatherDisplay:10.37,2013-05-19 06:03:00,
2013-05-19 00:08:00,49.3,40.3,29.40,NE,45,0.0,0.0,71,0.00,RA,,0.00,WeatherDisplay:10.37,2013-05-19 06:08:00,
2013-05-19 00:13:00,49.5,40.4,29.40,NE,45,0.0,0.0,71,0.00,CLR,,0.00,WeatherDisplay:10.37,2013-05-19 06:13:00,
2013-05-19 00:18:00,49.3,40.3,29.40,NE,45,0.0,0.0,71,0.00,CLR,,0.00,WeatherDisplay:10.37,2013-05-19 06:18:00,
2013-05-19 00:23:00,49.3,40.6,29.41,NE,45,0.0,0.0,72,0.00,CLR,,0.00,WeatherDisplay:10.37,2013-05-19 06:23:00,
2013-05-19 00:28:00,49.1,40.5,29.41,NE,45,0.0,0.0,72,0.00,CLR,,0.00,WeatherDisplay:10.37,2013-05-19 06:28:00,
2013-05-19 00:33:00,49.1,40.5,29.41,NE,45,0.0,0.0,72,0.00,CLR,,0.00,WeatherDisplay:10.37,2013-05-19 06:33:00,
2013-05-19 00:38:00,49.1,40.5,29.41,NE,45,0.0,0.0,72,0.00,CLR,,0.00,WeatherDisplay:10.37,2013-05-19 06:38:00,
2013-05-19 00:43:00,49.1,40.5,29.40,NE,45,0.0,0.0,72,0.00,CLR,,0.00,WeatherDisplay:10.37,2013-05-19 06:43:00,
2013-05-19 00:48:00,48.9,40.3,29.40,NE,45,0.0,0.0,72,0.00,CLR,,0.00,WeatherDisplay:10.37,2013-05-19 06:48:00,
2013-05-19 00:53:00,48.9,40.3,29.40,NE,45,0.0,0.0,72,0.00,CLR,,0.00,WeatherDisplay:10.37,2013-05-19 06:53:00,
2013-05-19 00:58:00,48.7,40.1,29.40,NE,45,0.0,0.0,72,0.00,CLR,,0.00,WeatherDisplay:10.37,2013-05-19 06:58:00,
2013-05-19 01:03:00,48.7,40.5,29.41,NE,45,0.0,0.0,73,0.00,CLR,,0.00,WeatherDisplay:10.37,2013-05-19 07:03:00,
2013-05-19 01:08:00,48.7,40.5,29.41,NE,45,0.0,0.0,73,0.00,CLR,,0.00,WeatherDisplay:10.37,2013-05-19 07:08:00,
2013-05-19 01:13:00,48.6,40.3,29.41,NE,45,0.0,0.0,73,0.00,CLR,,0.00,WeatherDisplay:10.37,2013-05-19 07:13:00,
2013-05-19 01:18:00,48.6,40.3,29.41,NE,45,0.0,0.0,73,0.00,CLR,,0.00,WeatherDisplay:10.37,2013-05-19 07:18:00,
2013-05-19 01:23:00,48.6,40.3,29.41,NE,45,0.0,0.0,73,0.00,CLR,,0.00,WeatherDisplay:10.37,2013-05-19 07:23:00,
2013-05-19 01:28:00,48.6,40.3,29.41,NE,45,0.0,0.0,73,0.00,CLR,,0.00,WeatherDisplay:10.37,2013-05-19 07:28:00,
2013-05-19 01:33:00,48.6,40.3,29.41,NE,45,0.0,0.0,73,0.00,CLR,,0.00,WeatherDisplay:10.37,2013-05-19 07:33:00,
2013-05-19 01:38:00,48.6,40.3,29.41,NE,45,0.0,0.0,73,0.00,CLR,,0.00,WeatherDisplay:10.37,2013-05-19 07:38:00,
2013-05-19 01:43:00,48.6,40.3,29.41,NE,45,0.0,0.0,73,0.00,CLR,,0.00,WeatherDisplay:10.37,2013-05-19 07:43:00,
2013-05-19 01:48:00,48.4,40.1,29.41,NE,45,0.0,0.0,73,0.00,CLR,,0.00,WeatherDisplay:10.37,2013-05-19 07:48:00,
2013-05-19 01:53:00,48.4,40.1,29.41,NE,45,0.0,0.0,73,0.00,CLR,,0.00,WeatherDisplay:10.37,2013-05-19 07:53:00,
2013-05-19 01:58:00,48.4,40.1,29.41,NE,45,0.0,0.0,73,0.00,CLR,,0.00,WeatherDisplay:10.37,2013-05-19 07:58:00,
2013-05-19 02:03:00,48.4,40.1,29.42,NE,45,0.0,0.0,73,0.00,CLR,,0.00,WeatherDisplay:10.37,2013-05-19 08:03:00,
2013-05-19 02:08:00,48.4,40.1,29.42,NE,45,0.0,0.0,73,0.00,CLR,,0.00,WeatherDisplay:10.37,2013-05-19 08:08:00,
2013-05-19 02:13:00,48.2,39.9,29.42,NE,45,0.0,0.0,73,0.00,CLR,,0.00,WeatherDisplay:10.37,2013-05-19 08:13:00,
2013-05-19 02:18:00,48.4,40.1,29.42,NE,45,0.0,0.0,73,0.00,CLR,,0.00,WeatherDisplay:10.37,2013-05-19 08:18:00,
2013-05-19 02:23:00,48.0,39.8,29.41,NE,45,0.0,0.0,73,0.03,RA,,0.03,WeatherDisplay:10.37,2013-05-19 08:23:00,
2013-05-19 02:28:00,48.2,39.9,29.41,NE,45,0.0,0.0,73,0.03,RA,,0.03,WeatherDisplay:10.37,2013-05-19 08:28:00,
2013-05-19 02:33:00,48.2,39.9,29.41,NE,45,0.0,0.0,73,0.03,,,0.03,WeatherDisplay:10.37,2013-05-19 08:33:00,
2013-05-19 02:38:00,48.0,39.8,29.41,NE,45,0.0,0.0,73,0.03,CLR,,0.03,WeatherDisplay:10.37,2013-05-19 08:38:00,
2013-05-19 02:43:00,48.0,39.8,29.42,NE,45,0.0,0.0,73,0.03,CLR,,0.03,WeatherDisplay:10.37,2013-05-19 08:43:00,
2013-05-19 02:48:00,48.0,39.8,29.42,NE,45,0.0,0.0,73,0.03,CLR,,0.03,WeatherDisplay:10.37,2013-05-19 08:48:00,
2013-05-19 02:53:00,48.0,39.8,29.42,NE,45,0.0,0.0,73,0.03,CLR,,0.03,WeatherDisplay:10.37,2013-05-19 08:53:00,
2013-05-19 02:58:00,47.8,40.0,29.42,NE,45,0.0,0.0,74,0.03,CLR,,0.03,WeatherDisplay:10.37,2013-05-19 08:58:00,
2013-05-19 03:03:00,47.8,40.0,29.42,NE,45,0.0,0.0,74,0.03,CLR,,0.03,WeatherDisplay:10.37,2013-05-19 09:03:00,
2013-05-19 03:08:00,47.8,40.0,29.42,NE,45,0.0,0.0,74,0.03,CLR,,0.03,WeatherDisplay:10.37,2013-05-19 09:08:00,
2013-05-19 03:13:00,48.0,40.1,29.42,NE,45,0.0,0.0,74,0.03,CLR,,0.03,WeatherDisplay:10.37,2013-05-19 09:13:00,
2013-05-19 03:18:00,47.8,40.0,29.42,NE,45,0.0,0.0,74,0.03,CLR,,0.03,WeatherDisplay:10.37,2013-05-19 09:18:00,
2013-05-19 03:23:00,47.7,39.8,29.42,NE,45,0.0,0.0,74,0.03,CLR,,0.03,WeatherDisplay:10.37,2013-05-19 09:23:00,
2013-05-19 03:28:00,47.7,39.8,29.42,NE,45,0.0,0.0,74,0.03,RA,,0.06,WeatherDisplay:10.37,2013-05-19 09:28:00,
2013-05-19 03:33:00,47.7,39.8,29.42,NE,45,0.0,0.0,74,0.03,RA,,0.06,WeatherDisplay:10.37,2013-05-19 09:33:00,
2013-05-19 03:38:00,47.7,39.8,29.42,NE,45,0.0,0.0,74,0.03,,,0.06,WeatherDisplay:10.37,2013-05-19 09:38:00,
2013-05-19 03:43:00,47.5,39.6,29.43,NE,45,0.0,0.0,74,0.03,CLR,,0.06,WeatherDisplay:10.37,2013-05-19 09:43:00,
2013-05-19 03:48:00,47.5,39.6,29.43,NE,45,0.0,0.0,74,0.03,CLR,,0.06,WeatherDisplay:10.37,2013-05-19 09:48:00,
2013-05-19 03:53:00,47.7,40.1,29.43,NE,45,0.0,0.0,75,0.03,CLR,,0.06,WeatherDisplay:10.37,2013-05-19 09:53:00,
2013-05-19 03:58:00,47.7,40.1,29.43,NE,45,0.0,0.0,75,0.03,CLR,,0.06,WeatherDisplay:10.37,2013-05-19 09:58:00,
2013-05-19 04:03:00,47.7,40.1,29.43,NE,45,0.0,0.0,75,0.03,CLR,,0.06,WeatherDisplay:10.37,2013-05-19 10:03:00,
2013-05-19 04:08:00,47.7,40.1,29.43,NE,45,0.0,0.0,75,0.03,CLR,,0.06,WeatherDisplay:10.37,2013-05-19 10:08:00,
2013-05-19 04:13:00,47.5,39.9,29.43,NE,45,0.0,0.0,75,0.06,RA,,0.08,WeatherDisplay:10.37,2013-05-19 10:13:00,
2013-05-19 04:18:00,47.7,40.1,29.43,NE,45,0.0,0.0,75,0.06,RA,,0.08,WeatherDisplay:10.37,2013-05-19 10:18:00,
2013-05-19 04:23:00,47.3,39.8,29.44,NE,45,0.0,0.0,75,0.06,,,0.08,WeatherDisplay:10.37,2013-05-19 10:23:00,
2013-05-19 04:28:00,47.3,39.8,29.44,NE,45,0.0,0.0,75,0.03,CLR,,0.08,WeatherDisplay:10.37,2013-05-19 10:28:00,
2013-05-19 04:33:00,47.3,39.8,29.44,NE,45,0.0,0.0,75,0.03,CLR,,0.08,WeatherDisplay:10.37,2013-05-19 10:33:00,
2013-05-19 04:38:00,47.3,39.8,29.44,NE,45,0.0,0.0,75,0.03,CLR,,0.08,WeatherDisplay:10.37,2013-05-19 10:38:00,
2013-05-19 04:43:00,47.3,39.8,29.44,NE,45,0.0,0.0,75,0.03,CLR,,0.08,WeatherDisplay:10.37,2013-05-19 10:43:00,
2013-05-19 04:48:00,47.3,39.8,29.44,NE,45,0.0,0.0,75,0.03,CLR,,0.08,WeatherDisplay:10.37,2013-05-19 10:48:00,
2013-05-19 04:53:00,47.1,39.6,29.44,NE,45,0.0,0.0,75,0.03,CLR,,0.08,WeatherDisplay:10.37,2013-05-19 10:53:00,
2013-05-19 04:58:00,47.1,39.6,29.44,NE,45,0.0,0.0,75,0.03,CLR,,0.08,WeatherDisplay:10.37,2013-05-19 10:58:00,
2013-05-19 05:03:00,47.1,39.6,29.44,NE,45,0.0,0.0,75,0.03,CLR,,0.08,WeatherDisplay:10.37,2013-05-19 11:03:00,
2013-05-19 05:08:00,47.3,39.8,29.44,NE,45,0.0,0.0,75,0.03,CLR,,0.08,WeatherDisplay:10.37,2013-05-19 11:08:00,
2013-05-19 05:13:00,47.3,39.8,29.44,NE,45,0.0,0.0,75,0.06,RA,,0.11,WeatherDisplay:10.37,2013-05-19 11:13:00,
2013-05-19 05:18:00,47.3,39.8,29.44,NE,45,0.0,0.0,75,0.03,RA,,0.11,WeatherDisplay:10.37,2013-05-19 11:18:00,
2013-05-19 05:23:00,47.1,39.6,29.44,NE,45,0.0,0.0,75,0.03,RA,,0.11,WeatherDisplay:10.37,2013-05-19 11:23:00,
2013-05-19 05:28:00,47.1,39.6,29.44,NE,45,0.0,0.0,75,0.03,CLR,,0.11,WeatherDisplay:10.37,2013-05-19 11:28:00,
2013-05-19 05:33:00,47.1,39.6,29.44,NE,45,0.0,0.0,75,0.03,CLR,,0.11,WeatherDisplay:10.37,2013-05-19 11:33:00,
2013-05-19 05:38:00,47.1,39.6,29.44,NE,45,0.0,0.0,75,0.03,CLR,,0.11,WeatherDisplay:10.37,2013-05-19 11:38:00,
2013-05-19 05:43:00,46.9,39.4,29.45,NE,45,0.0,0.0,75,0.03,CLR,,0.11,WeatherDisplay:10.37,2013-05-19 11:43:00,
2013-05-19 05:48:00,46.9,39.8,29.45,NE,45,0.0,0.0,76,0.06,RA,,0.14,WeatherDisplay:10.37,2013-05-19 11:48:00,
2013-05-19 05:53:00,46.9,39.8,29.45,NE,45,0.0,0.0,76,0.06,RA,,0.14,WeatherDisplay:10.37,2013-05-19 11:53:00,
2013-05-19 05:58:00,46.9,39.8,29.45,NE,45,0.0,0.0,76,0.06,CLR,,0.14,WeatherDisplay:10.37,2013-05-19 11:58:00,
2013-05-19 06:03:00,46.8,39.6,29.45,NE,45,0.0,0.0,76,0.06,CLR,,0.14,WeatherDisplay:10.37,2013-05-19 12:03:00,
2013-05-19 06:08:00,46.8,39.6,29.45,NE,45,0.0,0.0,76,0.06,CLR,,0.14,WeatherDisplay:10.37,2013-05-19 12:08:00,
2013-05-19 06:13:00,46.9,39.8,29.45,NE,45,0.0,0.0,76,0.06,CLR,,0.14,WeatherDisplay:10.37,2013-05-19 12:13:00,
2013-05-19 06:19:00,46.9,39.8,29.45,NE,45,0.0,0.0,76,0.06,CLR,,0.14,WeatherDisplay:10.37,2013-05-19 12:19:00,
2013-05-19 06:24:00,46.8,39.6,29.45,NE,45,0.0,0.0,76,0.03,CLR,,0.14,WeatherDisplay:10.37,2013-05-19 12:24:00,
2013-05-19 06:29:00,46.9,39.8,29.45,NE,45,0.0,0.0,76,0.03,CLR,,0.14,WeatherDisplay:10.37,2013-05-19 12:29:00,
2013-05-19 06:34:00,46.8,39.6,29.45,NE,45,0.0,0.0,76,0.03,CLR,,0.14,WeatherDisplay:10.37,2013-05-19 12:34:00,
2013-05-19 06:39:00,46.8,39.6,29.45,NE,45,0.0,0.0,76,0.03,CLR,,0.14,WeatherDisplay:10.37,2013-05-19 12:39:00,
2013-05-19 06:44:00,46.6,39.4,29.45,NE,45,0.0,0.0,76,0.03,CLR,,0.14,WeatherDisplay:10.37,2013-05-19 12:44:00,
2013-05-19 06:49:00,46.6,39.4,29.45,NE,45,0.0,0.0,76,0.00,CLR,,0.14,WeatherDisplay:10.37,2013-05-19 12:49:00,
2013-05-19 06:54:00,46.6,39.4,29.45,NE,45,0.0,0.0,76,0.00,CLR,,0.14,WeatherDisplay:10.37,2013-05-19 12:54:00,
2013-05-19 06:59:00,46.4,39.2,29.45,NE,45,0.0,0.0,76,0.03,RA,,0.17,WeatherDisplay:10.37,2013-05-19 12:59:00,
2013-05-19 07:04:00,46.6,39.4,29.46,NE,45,0.0,0.0,76,0.03,RA,,0.17,WeatherDisplay:10.37,2013-05-19 13:04:00,
2013-05-19 07:09:00,46.8,39.6,29.46,NE,45,0.0,0.0,76,0.03,CLR,,0.17,WeatherDisplay:10.37,2013-05-19 13:09:00,
2013-05-19 07:14:00,46.6,39.4,29.46,NE,45,0.0,0.0,76,0.03,CLR,,0.17,WeatherDisplay:10.37,2013-05-19 13:14:00,
2013-05-19 07:19:00,46.8,39.6,29.46,NE,45,0.0,0.0,76,0.03,CLR,,0.17,WeatherDisplay:10.37,2013-05-19 13:19:00,
2013-05-19 07:24:00,46.9,39.8,29.46,NE,45,0.0,0.0,76,0.03,CLR,,0.17,WeatherDisplay:10.37,2013-05-19 13:24:00,
2013-05-19 07:29:00,46.8,39.9,29.46,NE,45,0.0,0.0,77,0.03,CLR,,0.17,WeatherDisplay:10.37,2013-05-19 13:29:00,
2013-05-19 07:34:00,46.8,39.9,29.46,NE,45,0.0,0.0,77,0.03,CLR,,0.17,WeatherDisplay:10.37,2013-05-19 13:34:00,
2013-05-19 07:39:00,47.1,39.9,29.46,NE,45,0.0,0.0,76,0.03,CLR,,0.17,WeatherDisplay:10.37,2013-05-19 13:39:00,
2013-05-19 07:44:00,47.1,39.9,29.46,North,0,0.0,0.0,76,0.03,CLR,,0.17,WeatherDisplay:10.37,2013-05-19 13:44:00,
2013-05-19 07:49:00,47.3,40.1,29.46,North,0,0.0,0.0,76,0.03,CLR,,0.17,WeatherDisplay:10.37,2013-05-19 13:49:00,
2013-05-19 07:54:00,47.3,40.1,29.46,North,0,0.0,0.0,76,0.03,CLR,,0.17,WeatherDisplay:10.37,2013-05-19 13:54:00,
2013-05-19 07:59:00,47.3,40.5,29.46,North,0,0.0,0.0,77,0.03,CLR,,0.17,WeatherDisplay:10.37,2013-05-19 13:59:00,
2013-05-19 08:04:00,47.5,40.6,29.46,North,0,0.0,0.0,77,0.00,CLR,,0.17,WeatherDisplay:10.37,2013-05-19 14:04:00,
2013-05-19 08:09:00,47.5,40.3,29.46,West,270,0.0,0.0,76,0.00,CLR,,0.17,WeatherDisplay:10.37,2013-05-19 14:09:00,
2013-05-19 08:14:00,47.8,40.6,29.46,North,0,0.0,0.0,76,0.00,CLR,,0.17,WeatherDisplay:10.37,2013-05-19 14:14:00,
2013-05-19 08:19:00,47.8,40.6,29.46,North,0,0.0,0.0,76,0.00,CLR,,0.17,WeatherDisplay:10.37,2013-05-19 14:19:00,
2013-05-19 08:24:00,47.8,40.6,29.46,NNE,22,0.0,0.0,76,0.00,CLR,,0.17,WeatherDisplay:10.37,2013-05-19 14:24:00,
2013-05-19 08:29:00,48.2,41.0,29.46,NNE,22,0.0,0.0,76,0.00,CLR,,0.17,WeatherDisplay:10.37,2013-05-19 14:29:00,
2013-05-19 08:34:00,48.4,41.2,29.46,SE,135,0.0,0.0,76,0.00,CLR,,0.17,WeatherDisplay:10.37,2013-05-19 14:34:00,
2013-05-19 08:39:00,48.4,41.2,29.46,NE,45,0.0,0.0,76,0.00,CLR,,0.17,WeatherDisplay:10.37,2013-05-19 14:39:00,
2013-05-19 08:44:00,48.7,41.5,29.47,NE,45,0.0,0.0,76,0.00,CLR,,0.17,WeatherDisplay:10.37,2013-05-19 14:44:00,
2013-05-19 08:49:00,48.7,41.5,29.47,North,0,0.0,0.0,76,0.00,CLR,,0.17,WeatherDisplay:10.37,2013-05-19 14:49:00,
2013-05-19 08:54:00,49.1,41.9,29.47,North,0,0.0,0.0,76,0.00,CLR,,0.17,WeatherDisplay:10.37,2013-05-19 14:54:00,
2013-05-19 08:59:00,49.1,41.9,29.47,North,0,0.0,0.0,76,0.00,CLR,,0.17,WeatherDisplay:10.37,2013-05-19 14:59:00,
2013-05-19 09:04:00,49.5,42.2,29.46,NE,45,0.0,0.0,76,0.00,CLR,,0.17,WeatherDisplay:10.37,2013-05-19 15:04:00,
2013-05-19 09:09:00,49.5,42.2,29.46,North,0,0.0,0.0,76,0.00,CLR,,0.17,WeatherDisplay:10.37,2013-05-19 15:09:00,
2013-05-19 09:14:00,50.0,42.7,29.46,North,0,0.0,0.0,76,0.00,CLR,,0.17,WeatherDisplay:10.37,2013-05-19 15:14:00,
2013-05-19 09:19:00,50.2,42.9,29.46,North,0,0.0,0.0,76,0.00,CLR,,0.17,WeatherDisplay:10.37,2013-05-19 15:19:00,
2013-05-19 09:24:00,50.5,43.3,29.47,NNW,338,0.0,0.0,76,0.00,CLR,,0.17,WeatherDisplay:10.37,2013-05-19 15:24:00,
2013-05-19 09:29:00,50.5,42.9,29.47,NNE,22,0.0,0.0,75,0.00,CLR,,0.17,WeatherDisplay:10.37,2013-05-19 15:29:00,
2013-05-19 09:34:00,50.5,42.9,29.47,North,0,0.0,0.0,75,0.00,CLR,,0.17,WeatherDisplay:10.37,2013-05-19 15:34:00,
2013-05-19 09:39:00,50.5,42.9,29.47,North,0,0.0,0.0,75,0.00,CLR,,0.17,WeatherDisplay:10.37,2013-05-19 15:39:00,
2013-05-19 09:44:00,50.7,43.1,29.48,NE,45,0.0,0.0,75,0.03,RA,,0.19,WeatherDisplay:10.37,2013-05-19 15:44:00,
2013-05-19 09:49:00,50.5,42.9,29.48,NE,45,0.0,0.0,75,0.03,RA,,0.19,WeatherDisplay:10.37,2013-05-19 15:49:00,
2013-05-19 09:54:00,50.5,42.9,29.48,North,0,0.0,0.0,75,0.03,CLR,,0.19,WeatherDisplay:10.37,2013-05-19 15:54:00,
2013-05-19 09:59:00,50.7,43.1,29.48,North,0,0.0,0.0,75,0.03,CLR,,0.19,WeatherDisplay:10.37,2013-05-19 15:59:00,
2013-05-19 10:04:00,50.5,42.9,29.48,NNE,22,0.0,0.0,75,0.03,CLR,,0.19,WeatherDisplay:10.37,2013-05-19 16:04:00,
2013-05-19 10:09:00,50.5,42.9,29.48,NE,45,0.0,0.0,75,0.03,CLR,,0.19,WeatherDisplay:10.37,2013-05-19 16:09:00,
2013-05-19 10:14:00,50.7,43.1,29.48,NNE,22,0.0,0.0,75,0.03,CLR,,0.19,WeatherDisplay:10.37,2013-05-19 16:14:00,
2013-05-19 10:19:00,50.7,43.1,29.48,North,0,0.0,0.0,75,0.03,CLR,,0.19,WeatherDisplay:10.37,2013-05-19 16:19:00,
2013-05-19 10:24:00,50.7,43.1,29.48,NE,45,0.0,0.0,75,0.03,CLR,,0.19,WeatherDisplay:10.37,2013-05-19 16:24:00,
2013-05-19 10:29:00,50.7,43.1,29.48,ENE,68,0.0,0.0,75,0.03,CLR,,0.19,WeatherDisplay:10.37,2013-05-19 16:29:00,
2013-05-19 10:34:00,50.7,43.1,29.48,NE,45,0.0,0.0,75,0.03,CLR,,0.19,WeatherDisplay:10.37,2013-05-19 16:34:00,
2013-05-19 10:39:00,50.7,43.1,29.48,NNE,22,0.0,0.0,75,0.03,CLR,,0.19,WeatherDisplay:10.37,2013-05-19 16:39:00,
2013-05-19 10:44:00,50.7,43.1,29.49,NE,45,0.0,0.0,75,0.00,CLR,,0.19,WeatherDisplay:10.37,2013-05-19 16:44:00,
2013-05-19 10:49:00,50.9,43.3,29.49,NE,45,0.0,0.0,75,0.00,CLR,,0.19,WeatherDisplay:10.37,2013-05-19 16:49:00,
2013-05-19 10:54:00,50.9,43.3,29.49,NNW,338,0.0,0.0,75,0.00,CLR,,0.19,WeatherDisplay:10.37,2013-05-19 16:54:00,
2013-05-19 10:59:00,50.9,43.3,29.49,NNW,338,0.0,0.0,75,0.00,CLR,,0.19,WeatherDisplay:10.37,2013-05-19 16:59:00,
2013-05-19 11:04:00,50.7,43.1,29.49,NW,315,0.0,0.0,75,0.00,CLR,,0.19,WeatherDisplay:10.37,2013-05-19 17:04:00,
2013-05-19 11:09:00,50.7,43.1,29.49,North,0,0.0,0.0,75,0.00,CLR,,0.19,WeatherDisplay:10.37,2013-05-19 17:09:00,
2013-05-19 11:14:00,50.7,43.1,29.49,North,0,0.0,0.0,75,0.00,CLR,,0.19,WeatherDisplay:10.37,2013-05-19 17:14:00,
2013-05-19 11:19:00,50.7,43.1,29.49,NNW,338,0.0,0.0,75,0.00,CLR,,0.19,WeatherDisplay:10.37,2013-05-19 17:19:00,
2013-05-19 11:24:00,50.9,42.9,29.50,NNW,338,0.0,0.0,74,0.00,CLR,,0.19,WeatherDisplay:10.37,2013-05-19 17:24:00,
2013-05-19 11:29:00,50.9,42.9,29.50,NNW,338,0.0,0.0,74,0.00,CLR,,0.19,WeatherDisplay:10.37,2013-05-19 17:29:00,
2013-05-19 11:34:00,50.9,42.9,29.50,North,0,0.0,0.0,74,0.00,CLR,,0.19,WeatherDisplay:10.37,2013-05-19 17:34:00,
2013-05-19 11:39:00,50.9,42.9,29.50,NE,45,0.0,0.0,74,0.00,CLR,,0.19,WeatherDisplay:10.37,2013-05-19 17:39:00,
2013-05-19 11:44:00,51.3,43.3,29.50,North,0,0.0,0.0,74,0.00,CLR,,0.19,WeatherDisplay:10.37,2013-05-19 17:44:00,
2013-05-19 11:49:00,50.9,42.9,29.50,NNE,22,0.0,0.0,74,0.00,CLR,,0.19,WeatherDisplay:10.37,2013-05-19 17:49:00,
2013-05-19 11:54:00,51.1,43.1,29.50,North,0,0.0,0.0,74,0.00,CLR,,0.19,WeatherDisplay:10.37,2013-05-19 17:54:00,
2013-05-19 11:59:00,51.4,43.4,29.50,NNE,22,0.0,0.0,74,0.00,CLR,,0.19,WeatherDisplay:10.37,2013-05-19 17:59:00,
2013-05-19 12:04:00,51.4,43.4,29.50,North,0,0.0,0.0,74,0.00,CLR,,0.19,WeatherDisplay:10.37,2013-05-19 18:04:00,
2013-05-19 12:09:00,51.4,43.4,29.50,North,0,0.0,0.0,74,0.00,CLR,,0.19,WeatherDisplay:10.37,2013-05-19 18:09:00,
2013-05-19 12:14:00,52.2,44.1,29.50,ENE,68,0.0,0.0,74,0.03,RA,,0.22,WeatherDisplay:10.37,2013-05-19 18:14:00,
2013-05-19 12:19:00,52.3,43.9,29.50,North,0,0.0,0.0,73,0.03,RA,,0.22,WeatherDisplay:10.37,2013-05-19 18:19:00,
2013-05-19 12:24:00,52.7,44.6,29.50,NNW,338,0.0,0.0,74,0.03,,,0.22,WeatherDisplay:10.37,2013-05-19 18:24:00,
2013-05-19 12:29:00,52.5,44.1,29.50,North,0,0.0,0.0,73,0.03,CLR,,0.22,WeatherDisplay:10.37,2013-05-19 18:29:00,
2013-05-19 12:34:00,52.7,44.3,29.50,NE,45,0.0,0.0,73,0.03,CLR,,0.22,WeatherDisplay:10.37,2013-05-19 18:34:00,
2013-05-19 12:39:00,52.7,44.3,29.50,NE,45,0.0,0.0,73,0.03,CLR,,0.22,WeatherDisplay:10.37,2013-05-19 18:39:00,
2013-05-19 12:44:00,52.7,44.3,29.50,ENE,68,0.0,0.0,73,0.03,CLR,,0.22,WeatherDisplay:10.37,2013-05-19 18:44:00,
2013-05-19 12:49:00,52.9,44.5,29.50,North,0,0.0,0.0,73,0.03,CLR,,0.22,WeatherDisplay:10.37,2013-05-19 18:49:00,
2013-05-19 12:54:00,52.9,44.5,29.50,NNW,338,0.0,0.0,73,0.03,CLR,,0.22,WeatherDisplay:10.37,2013-05-19 18:54:00,
2013-05-19 12:59:00,53.4,45.0,29.50,ENE,68,0.0,0.0,73,0.03,CLR,,0.22,WeatherDisplay:10.37,2013-05-19 18:59:00,
2013-05-19 13:04:00,53.4,45.0,29.49,NNE,22,0.0,0.0,73,0.03,CLR,,0.22,WeatherDisplay:10.37,2013-05-19 19:04:00,
2013-05-19 13:09:00,53.4,45.0,29.49,North,0,0.0,0.0,73,0.03,CLR,,0.22,WeatherDisplay:10.37,2013-05-19 19:09:00,
2013-05-19 13:14:00,53.6,45.2,29.49,NE,45,0.0,0.0,73,0.00,CLR,,0.22,WeatherDisplay:10.37,2013-05-19 19:14:00,
2013-05-19 13:19:00,53.6,45.2,29.49,NNE,22,0.0,0.0,73,0.00,CLR,,0.22,WeatherDisplay:10.37,2013-05-19 19:19:00,
2013-05-19 13:24:00,53.4,44.6,29.50,NE,45,0.0,0.0,72,0.00,CLR,,0.22,WeatherDisplay:10.37,2013-05-19 19:24:00,
2013-05-19 13:29:00,53.4,44.6,29.50,ENE,68,0.0,0.0,72,0.03,RA,,0.25,WeatherDisplay:10.37,2013-05-19 19:29:00,
2013-05-19 13:34:00,53.2,44.4,29.50,NE,45,0.0,0.0,72,0.03,RA,,0.25,WeatherDisplay:10.37,2013-05-19 19:34:00,
2013-05-19 13:39:00,53.2,44.8,29.50,NE,45,0.0,0.0,73,0.03,CLR,,0.25,WeatherDisplay:10.37,2013-05-19 19:39:00,
2013-05-19 13:44:00,53.4,45.0,29.50,ESE,112,0.0,0.0,73,0.03,CLR,,0.25,WeatherDisplay:10.37,2013-05-19 19:44:00,
2013-05-19 13:49:00,53.4,45.0,29.50,NE,45,0.0,0.0,73,0.03,CLR,,0.25,WeatherDisplay:10.37,2013-05-19 19:49:00,
2013-05-19 13:54:00,53.6,45.2,29.50,North,0,0.0,0.0,73,0.03,CLR,,0.25,WeatherDisplay:10.37,2013-05-19 19:54:00,
2013-05-19 13:59:00,53.6,45.2,29.50,NW,315,0.0,0.0,73,0.03,CLR,,0.25,WeatherDisplay:10.37,2013-05-19 19:59:00,
2013-05-19 14:04:00,54.1,45.7,29.51,NE,45,0.0,0.0,73,0.03,CLR,,0.25,WeatherDisplay:10.37,2013-05-19 20:04:00,
2013-05-19 14:09:00,54.1,45.7,29.51,ENE,68,0.0,0.0,73,0.03,CLR,,0.25,WeatherDisplay:10.37,2013-05-19 20:09:00,
2013-05-19 14:14:00,54.5,46.0,29.51,NE,45,0.0,0.0,73,0.03,CLR,,0.25,WeatherDisplay:10.37,2013-05-19 20:14:00,
2013-05-19 14:19:00,54.5,45.7,29.51,SW,225,0.0,0.0,72,0.03,CLR,,0.25,WeatherDisplay:10.37,2013-05-19 20:19:00,
2013-05-19 14:24:00,54.3,45.5,29.50,ENE,68,0.0,0.0,72,0.03,CLR,,0.25,WeatherDisplay:10.37,2013-05-19 20:24:00,
2013-05-19 14:29:00,54.3,45.5,29.50,ENE,68,0.0,0.0,72,0.00,CLR,,0.25,WeatherDisplay:10.37,2013-05-19 20:29:00,
2013-05-19 14:34:00,54.1,45.3,29.50,ENE,68,0.0,0.0,72,0.00,CLR,,0.25,WeatherDisplay:10.37,2013-05-19 20:34:00,
2013-05-19 14:39:00,54.1,45.3,29.50,North,0,0.0,0.0,72,0.00,CLR,,0.25,WeatherDisplay:10.37,2013-05-19 20:39:00,
2013-05-19 14:44:00,54.1,45.3,29.51,ENE,68,0.0,0.0,72,0.00,CLR,,0.25,WeatherDisplay:10.37,2013-05-19 20:44:00,
2013-05-19 14:49:00,54.1,45.3,29.51,NE,45,0.0,0.0,72,0.00,CLR,,0.25,WeatherDisplay:10.37,2013-05-19 20:49:00,
2013-05-19 14:54:00,54.1,45.3,29.51,NNW,338,0.0,0.0,72,0.03,RA,,0.28,WeatherDisplay:10.37,2013-05-19 20:54:00,
2013-05-19 14:59:00,54.1,45.3,29.51,North,0,0.0,0.0,72,0.03,RA,,0.28,WeatherDisplay:10.37,2013-05-19 20:59:00,
2013-05-19 15:04:00,53.8,45.0,29.50,ENE,68,0.0,0.0,72,0.03,CLR,,0.28,WeatherDisplay:10.37,2013-05-19 21:04:00,
2013-05-19 15:09:00,53.6,44.8,29.50,North,0,0.0,0.0,72,0.03,CLR,,0.28,WeatherDisplay:10.37,2013-05-19 21:09:00,
2013-05-19 15:14:00,53.8,45.0,29.50,North,0,0.0,0.0,72,0.03,CLR,,0.28,WeatherDisplay:10.37,2013-05-19 21:14:00,
2013-05-19 15:19:00,54.1,45.3,29.50,NE,45,0.0,0.0,72,0.03,CLR,,0.28,WeatherDisplay:10.37,2013-05-19 21:19:00,
2013-05-19 15:24:00,54.5,45.7,29.51,NW,315,0.0,0.0,72,0.03,CLR,,0.28,WeatherDisplay:10.37,2013-05-19 21:24:00,
2013-05-19 15:29:00,54.5,45.7,29.51,NNW,338,0.0,0.0,72,0.03,CLR,,0.28,WeatherDisplay:10.37,2013-05-19 21:29:00,
2013-05-19 15:34:00,54.9,46.0,29.51,NNW,338,0.0,0.0,72,0.03,CLR,,0.28,WeatherDisplay:10.37,2013-05-19 21:34:00,
2013-05-19 15:39:00,54.9,46.0,29.51,NNW,338,0.0,0.0,72,0.03,CLR,,0.28,WeatherDisplay:10.37,2013-05-19 21:39:00,
2013-05-19 15:44:00,55.2,46.3,29.51,WNW,292,0.0,0.0,72,0.03,CLR,,0.28,WeatherDisplay:10.37,2013-05-19 21:44:00,
2013-05-19 15:49:00,55.2,46.3,29.51,ENE,68,0.0,0.0,72,0.03,CLR,,0.28,WeatherDisplay:10.37,2013-05-19 21:49:00,
2013-05-19 15:54:00,55.2,46.3,29.51,North,0,0.0,0.0,72,0.00,CLR,,0.28,WeatherDisplay:10.37,2013-05-19 21:54:00,
2013-05-19 15:59:00,54.9,46.0,29.51,NE,45,0.0,0.0,72,0.00,CLR,,0.28,WeatherDisplay:10.37,2013-05-19 21:59:00,
2013-05-19 16:04:00,54.9,46.0,29.51,NE,45,0.0,0.0,72,0.00,CLR,,0.28,WeatherDisplay:10.37,2013-05-19 22:04:00,
2013-05-19 16:09:00,54.7,45.8,29.51,NNE,22,0.0,0.0,72,0.00,CLR,,0.28,WeatherDisplay:10.37,2013-05-19 22:09:00,
2013-05-19 16:14:00,54.5,45.7,29.51,ENE,68,0.0,0.0,72,0.00,CLR,,0.28,WeatherDisplay:10.37,2013-05-19 22:14:00,
2013-05-19 16:19:00,54.5,45.7,29.51,NNE,22,0.0,0.0,72,0.00,CLR,,0.28,WeatherDisplay:10.37,2013-05-19 22:19:00,
2013-05-19 16:24:00,54.3,45.5,29.50,North,0,0.0,0.0,72,0.00,CLR,,0.28,WeatherDisplay:10.37,2013-05-19 22:24:00,
2013-05-19 16:29:00,54.1,45.3,29.50,NNW,338,0.0,0.0,72,0.00,CLR,,0.28,WeatherDisplay:10.37,2013-05-19 22:29:00,
2013-05-19 16:34:00,54.1,45.3,29.50,North,0,0.0,0.0,72,0.00,CLR,,0.28,WeatherDisplay:10.37,2013-05-19 22:34:00,
2013-05-19 16:39:00,54.1,45.3,29.50,NE,45,0.0,0.0,72,0.00,CLR,,0.28,WeatherDisplay:10.37,2013-05-19 22:39:00,
2013-05-19 16:44:00,54.3,45.5,29.50,NE,45,0.0,0.0,72,0.00,CLR,,0.28,WeatherDisplay:10.37,2013-05-19 22:44:00,
2013-05-19 16:49:00,54.5,45.7,29.50,North,0,0.0,0.0,72,0.00,CLR,,0.28,WeatherDisplay:10.37,2013-05-19 22:49:00,
2013-05-19 16:54:00,54.5,45.7,29.50,ENE,68,0.0,0.0,72,0.00,CLR,,0.28,WeatherDisplay:10.37,2013-05-19 22:54:00,
2013-05-19 16:59:00,54.3,45.5,29.50,ENE,68,0.0,0.0,72,0.00,CLR,,0.28,WeatherDisplay:10.37,2013-05-19 22:59:00,
2013-05-19 17:04:00,54.1,45.3,29.50,NE,45,0.0,0.0,72,0.00,CLR,,0.28,WeatherDisplay:10.37,2013-05-19 23:04:00,
2013-05-19 17:09:00,54.1,45.3,29.50,NE,45,0.0,0.0,72,0.00,CLR,,0.28,WeatherDisplay:10.37,2013-05-19 23:09:00,
2013-05-19 17:14:00,53.8,45.0,29.50,NE,45,0.0,0.0,72,0.00,CLR,,0.28,WeatherDisplay:10.37,2013-05-19 23:14:00,
2013-05-19 17:19:00,53.6,44.8,29.50,NE,45,0.0,0.0,72,0.00,CLR,,0.28,WeatherDisplay:10.37,2013-05-19 23:19:00,
2013-05-19 17:24:00,53.8,45.3,29.51,North,0,0.0,0.0,73,0.03,RA,,0.30,WeatherDisplay:10.37,2013-05-19 23:24:00,
2013-05-19 17:29:00,53.6,45.2,29.51,North,0,0.0,0.0,73,0.03,RA,,0.30,WeatherDisplay:10.37,2013-05-19 23:29:00,
2013-05-19 17:34:00,53.2,45.2,29.51,ENE,68,0.0,0.0,74,0.03,,,0.30,WeatherDisplay:10.37,2013-05-19 23:34:00,
2013-05-19 17:39:00,53.4,45.3,29.51,NE,45,0.0,0.0,74,0.03,CLR,,0.30,WeatherDisplay:10.37,2013-05-19 23:39:00,
2013-05-19 17:44:00,53.4,45.3,29.51,NE,45,0.0,0.0,74,0.03,CLR,,0.30,WeatherDisplay:10.37,2013-05-19 23:44:00,
2013-05-19 17:49:00,53.6,45.5,29.51,NNE,22,0.0,0.0,74,0.03,CLR,,0.30,WeatherDisplay:10.37,2013-05-19 23:49:00,
2013-05-19 17:54:00,54.0,45.9,29.51,North,0,0.0,0.0,74,0.03,CLR,,0.30,WeatherDisplay:10.37,2013-05-19 23:54:00,
2013-05-19 17:59:00,54.1,46.0,29.51,NE,45,0.0,0.0,74,0.03,CLR,,0.30,WeatherDisplay:10.37,2013-05-19 23:59:00,
2013-05-19 18:04:00,54.3,46.2,29.51,North,0,0.0,0.0,74,0.03,CLR,,0.30,WeatherDisplay:10.37,2013-05-20 00:04:00,
2013-05-19 18:09:00,54.3,46.2,29.51,North,0,0.0,0.0,74,0.03,CLR,,0.30,WeatherDisplay:10.37,2013-05-20 00:09:00,
2013-05-19 18:14:00,54.3,46.2,29.51,NE,45,0.0,0.0,74,0.03,CLR,,0.30,WeatherDisplay:10.37,2013-05-20 00:14:00,
2013-05-19 18:19:00,54.3,46.2,29.51,NNW,338,0.0,0.0,74,0.03,CLR,,0.30,WeatherDisplay:10.37,2013-05-20 00:19:00,
2013-05-19 18:24:00,54.1,46.0,29.51,North,0,0.0,0.0,74,0.00,CLR,,0.30,WeatherDisplay:10.37,2013-05-20 00:24:00,
2013-05-19 18:29:00,54.1,46.0,29.51,NNE,22,0.0,0.0,74,0.00,CLR,,0.30,WeatherDisplay:10.37,2013-05-20 00:29:00,
2013-05-19 18:34:00,54.1,46.0,29.51,East,90,0.0,0.0,74,0.00,CLR,,0.30,WeatherDisplay:10.37,2013-05-20 00:34:00,
2013-05-19 18:39:00,53.6,45.5,29.51,NE,45,0.0,0.0,74,0.00,CLR,,0.30,WeatherDisplay:10.37,2013-05-20 00:39:00,
2013-05-19 18:44:00,53.6,45.5,29.51,ENE,68,0.0,0.0,74,0.00,CLR,,0.30,WeatherDisplay:10.37,2013-05-20 00:44:00,
2013-05-19 18:49:00,53.4,45.3,29.51,WSW,248,0.0,0.0,74,0.00,CLR,,0.30,WeatherDisplay:10.37,2013-05-20 00:49:00,
2013-05-19 18:54:00,53.1,45.0,29.51,NNE,22,0.0,0.0,74,0.00,CLR,,0.33,WeatherDisplay:10.37,2013-05-20 00:54:00,
2013-05-19 18:59:00,53.1,45.0,29.51,North,0,0.0,0.0,74,0.03,RA,,0.33,WeatherDisplay:10.37,2013-05-20 00:59:00,
2013-05-19 19:04:00,53.1,45.0,29.51,North,0,0.0,0.0,74,0.03,RA,,0.33,WeatherDisplay:10.37,2013-05-20 01:04:00,
2013-05-19 19:09:00,52.7,45.0,29.51,North,0,0.0,0.0,75,0.03,CLR,,0.33,WeatherDisplay:10.37,2013-05-20 01:09:00,
2013-05-19 19:14:00,52.7,45.0,29.51,North,0,0.0,0.0,75,0.03,CLR,,0.33,WeatherDisplay:10.37,2013-05-20 01:14:00,
2013-05-19 19:19:00,52.3,44.6,29.51,North,0,0.0,0.0,75,0.03,CLR,,0.33,WeatherDisplay:10.37,2013-05-20 01:19:00,
2013-05-19 19:24:00,52.2,44.5,29.51,North,0,0.0,0.0,75,0.03,CLR,,0.33,WeatherDisplay:10.37,2013-05-20 01:24:00,
2013-05-19 19:29:00,52.2,44.5,29.51,NNE,22,0.0,0.0,75,0.03,CLR,,0.33,WeatherDisplay:10.37,2013-05-20 01:29:00,
2013-05-19 19:34:00,52.0,44.3,29.51,NNE,22,0.0,0.0,75,0.03,CLR,,0.33,WeatherDisplay:10.37,2013-05-20 01:34:00,
2013-05-19 19:39:00,52.0,44.6,29.51,North,0,0.0,0.0,76,0.03,CLR,,0.33,WeatherDisplay:10.37,2013-05-20 01:39:00,
2013-05-19 19:44:00,52.0,44.6,29.51,North,0,0.0,0.0,76,0.03,CLR,,0.33,WeatherDisplay:10.37,2013-05-20 01:44:00,
2013-05-19 19:49:00,51.6,44.0,29.51,NNE,22,0.0,0.0,75,0.03,CLR,,0.33,WeatherDisplay:10.37,2013-05-20 01:49:00,
2013-05-19 19:54:00,51.8,44.1,29.51,NE,45,0.0,0.0,75,0.03,CLR,,0.33,WeatherDisplay:10.37,2013-05-20 01:54:00,
2013-05-19 19:59:00,51.6,44.3,29.52,North,0,0.0,0.0,76,0.00,CLR,,0.33,WeatherDisplay:10.37,2013-05-20 01:59:00,
2013-05-19 20:04:00,51.4,44.1,29.52,NE,45,0.0,0.0,76,0.00,CLR,,0.33,WeatherDisplay:10.37,2013-05-20 02:04:00,
2013-05-19 20:09:00,51.4,44.1,29.52,North,0,0.0,0.0,76,0.00,CLR,,0.33,WeatherDisplay:10.37,2013-05-20 02:09:00,
2013-05-19 20:15:00,51.3,44.0,29.52,North,0,0.0,0.0,76,0.00,CLR,,0.33,WeatherDisplay:10.37,2013-05-20 02:15:00,
2013-05-19 20:20:00,51.3,44.0,29.51,North,0,0.0,0.0,76,0.00,CLR,,0.33,WeatherDisplay:10.37,2013-05-20 02:20:00,
2013-05-19 20:25:00,51.1,43.8,29.51,North,0,0.0,0.0,76,0.00,CLR,,0.33,WeatherDisplay:10.37,2013-05-20 02:25:00,
2013-05-19 20:30:00,50.9,43.6,29.51,NE,45,0.0,0.0,76,0.00,CLR,,0.33,WeatherDisplay:10.37,2013-05-20 02:30:00,
2013-05-19 20:35:00,50.9,43.6,29.51,NE,45,0.0,0.0,76,0.00,CLR,,0.33,WeatherDisplay:10.37,2013-05-20 02:35:00,
2013-05-19 20:40:00,50.7,43.4,29.51,NE,45,0.0,0.0,76,0.00,CLR,,0.33,WeatherDisplay:10.37,2013-05-20 02:40:00,
2013-05-19 20:45:00,50.9,43.6,29.51,NE,45,0.0,0.0,76,0.00,CLR,,0.33,WeatherDisplay:10.37,2013-05-20 02:45:00,
2013-05-19 20:50:00,50.5,43.6,29.51,NE,45,0.0,0.0,77,0.00,CLR,,0.33,WeatherDisplay:10.37,2013-05-20 02:50:00,
2013-05-19 20:55:00,50.5,43.6,29.51,NE,45,0.0,0.0,77,0.00,CLR,,0.33,WeatherDisplay:10.37,2013-05-20 02:55:00,
2013-05-19 21:00:00,50.5,43.6,29.52,NE,45,0.0,0.0,77,0.00,CLR,,0.33,WeatherDisplay:10.37,2013-05-20 03:00:00,
2013-05-19 21:05:00,50.5,43.6,29.52,NE,45,0.0,0.0,77,0.00,CLR,,0.33,WeatherDisplay:10.37,2013-05-20 03:05:00,
2013-05-19 21:10:00,50.2,43.2,29.52,NE,45,0.0,0.0,77,0.00,CLR,,0.33,WeatherDisplay:10.37,2013-05-20 03:10:00,
2013-05-19 21:15:00,50.0,43.1,29.52,NE,45,0.0,0.0,77,0.00,CLR,,0.33,WeatherDisplay:10.37,2013-05-20 03:15:00,
2013-05-19 21:20:00,50.2,43.2,29.52,NE,45,0.0,0.0,77,0.00,CLR,,0.33,WeatherDisplay:10.37,2013-05-20 03:20:00,
2013-05-19 21:25:00,50.0,43.1,29.52,NE,45,0.0,0.0,77,0.00,CLR,,0.33,WeatherDisplay:10.37,2013-05-20 03:25:00,
2013-05-19 21:30:00,50.0,43.1,29.52,NE,45,0.0,0.0,77,0.00,CLR,,0.33,WeatherDisplay:10.37,2013-05-20 03:30:00,
2013-05-19 21:35:00,49.8,42.9,29.52,NE,45,0.0,0.0,77,0.00,CLR,,0.33,WeatherDisplay:10.37,2013-05-20 03:35:00,
2013-05-19 21:40:00,49.8,42.9,29.53,NE,45,0.0,0.0,77,0.00,CLR,,0.33,WeatherDisplay:10.37,2013-05-20 03:40:00,
2013-05-19 21:45:00,49.6,42.7,29.53,NE,45,0.0,0.0,77,0.00,CLR,,0.33,WeatherDisplay:10.37,2013-05-20 03:45:00,
2013-05-19 21:50:00,49.8,42.9,29.53,NE,45,0.0,0.0,77,0.00,CLR,,0.33,WeatherDisplay:10.37,2013-05-20 03:50:00,
2013-05-19 21:55:00,49.6,42.7,29.53,NE,45,0.0,0.0,77,0.00,CLR,,0.33,WeatherDisplay:10.37,2013-05-20 03:55:00,
2013-05-19 22:00:00,49.5,42.9,29.54,NE,45,0.0,0.0,78,0.00,CLR,,0.33,WeatherDisplay:10.37,2013-05-20 04:00:00,
2013-05-19 22:01:00,49.5,42.9,29.54,NE,45,0.0,0.0,78,0.00,CLR,,0.33,WeatherDisplay:10.37,2013-05-20 04:01:00,
2013-05-19 22:02:00,49.5,42.9,29.54,NE,45,0.0,0.0,78,0.00,CLR,,0.33,WeatherDisplay:10.37,2013-05-20 04:02:00,
2013-05-19 22:03:00,49.5,42.9,29.54,NE,45,0.0,0.0,78,0.00,CLR,,0.33,WeatherDisplay:10.37,2013-05-20 04:03:00,
2013-05-19 22:06:00,49.5,42.9,29.54,NE,45,0.0,0.0,78,0.00,CLR,,0.33,WeatherDisplay:10.37,2013-05-20 04:06:00,
2013-05-19 22:11:00,49.5,42.9,29.54,NE,45,0.0,0.0,78,0.00,CLR,,0.33,WeatherDisplay:10.37,2013-05-20 04:11:00,
2013-05-19 22:16:00,49.5,42.9,29.54,NE,45,0.0,0.0,78,0.00,CLR,,0.33,WeatherDisplay:10.37,2013-05-20 04:16:00,
2013-05-19 22:21:00,49.3,42.7,29.54,NE,45,0.0,0.0,78,0.00,CLR,,0.33,WeatherDisplay:10.37,2013-05-20 04:21:00,
2013-05-19 22:26:00,49.3,42.7,29.54,NE,45,0.0,0.0,78,0.03,RA,,0.36,WeatherDisplay:10.37,2013-05-20 04:26:00,
2013-05-19 22:31:00,49.5,42.9,29.54,North,0,0.0,0.0,78,0.03,RA,,0.36,WeatherDisplay:10.37,2013-05-20 04:31:00,
2013-05-19 22:36:00,49.3,42.7,29.54,East,90,0.0,0.0,78,0.03,CLR,,0.36,WeatherDisplay:10.37,2013-05-20 04:36:00,
2013-05-19 22:41:00,49.1,42.5,29.54,East,90,0.0,0.0,78,0.03,CLR,,0.36,WeatherDisplay:10.37,2013-05-20 04:41:00,
2013-05-19 22:46:00,49.1,42.5,29.54,East,90,0.0,0.0,78,0.03,CLR,,0.36,WeatherDisplay:10.37,2013-05-20 04:46:00,
2013-05-19 22:51:00,49.1,42.5,29.54,East,90,0.0,0.0,78,0.03,CLR,,0.36,WeatherDisplay:10.37,2013-05-20 04:51:00,
2013-05-19 22:56:00,49.1,42.5,29.54,East,90,0.0,0.0,78,0.03,CLR,,0.36,WeatherDisplay:10.37,2013-05-20 04:56:00,
2013-05-19 23:01:00,49.1,42.5,29.54,East,90,0.0,0.0,78,0.06,RA,,0.39,WeatherDisplay:10.37,2013-05-20 05:01:00,
2013-05-19 23:06:00,49.1,42.5,29.54,East,90,0.0,0.0,78,0.06,RA,,0.39,WeatherDisplay:10.37,2013-05-20 05:06:00,
2013-05-19 23:11:00,49.1,42.5,29.54,ENE,68,0.0,0.0,78,0.06,,,0.39,WeatherDisplay:10.37,2013-05-20 05:11:00,
2013-05-19 23:16:00,49.1,42.5,29.54,WNW,292,0.0,0.0,78,0.08,RA,,0.41,WeatherDisplay:10.37,2013-05-20 05:16:00,
2013-05-19 23:21:00,49.1,42.5,29.54,NE,45,0.0,0.0,78,0.08,RA,,0.41,WeatherDisplay:10.37,2013-05-20 05:21:00,
2013-05-19 23:26:00,49.1,42.5,29.54,NE,45,0.0,0.0,78,0.06,CLR,,0.41,WeatherDisplay:10.37,2013-05-20 05:26:00,
2013-05-19 23:31:00,49.1,42.5,29.54,NE,45,0.0,0.0,78,0.06,CLR,,0.41,WeatherDisplay:10.37,2013-05-20 05:31:00,
2013-05-19 23:36:00,49.1,42.5,29.54,ENE,68,0.0,0.0,78,0.08,RA,,0.44,WeatherDisplay:10.37,2013-05-20 05:36:00,
2013-05-19 23:41:00,49.1,42.5,29.54,NNW,338,0.0,0.0,78,0.08,RA,,0.44,WeatherDisplay:10.37,2013-05-20 05:41:00,
2013-05-19 23:46:00,49.1,42.5,29.54,NNW,338,0.0,0.0,78,0.08,,,0.44,WeatherDisplay:10.37,2013-05-20 05:46:00,
2013-05-19 23:51:00,49.1,42.5,29.54,West,270,0.0,0.0,78,0.11,RA,,0.47,WeatherDisplay:10.37,2013-05-20 05:51:00,
2013-05-19 23:56:00,49.1,42.5,29.54,NE,45,0.0,0.0,78,0.14,RA,,0.50,WeatherDisplay:10.37,2013-05-20 05:56:00,